createdAt,value
2018-09-03T00:01:18.191Z,31.40
2018-09-03T00:03:46.966Z,34.60
2018-09-03T00:06:15.911Z,34.00
2018-09-03T00:08:44.648Z,31.20
2018-09-03T00:11:13.409Z,32.97
2018-09-03T00:13:42.181Z,36.90
2018-09-03T00:16:10.971Z,34.83
2018-09-03T00:18:40.032Z,31.40
2018-09-03T00:21:08.717Z,31.53
2018-09-03T00:23:37.560Z,35.30
2018-09-03T00:26:06.336Z,35.50
2018-09-03T00:28:35.010Z,34.20
2018-09-03T00:31:09.180Z,32.80
2018-09-03T00:35:44.096Z,43.03
2018-09-03T00:38:18.132Z,31.70
2018-09-03T00:41:00.561Z,32.57
2018-09-03T00:43:34.520Z,34.80
2018-09-03T00:46:08.516Z,38.50
2018-09-03T00:48:37.213Z,37.67
2018-09-03T00:51:06.069Z,34.10
2018-09-03T00:53:35.576Z,36.80
2018-09-03T00:56:04.392Z,39.43
2018-09-03T00:58:33.225Z,36.80
2018-09-03T01:01:02.223Z,37.20
2018-09-03T01:03:31.364Z,36.77
2018-09-03T01:06:00.149Z,37.10
2018-09-03T01:08:28.819Z,33.60
2018-09-03T01:10:57.824Z,35.47
2018-09-03T01:13:26.658Z,36.90
2018-09-03T01:15:55.389Z,34.10
2018-09-03T01:18:24.200Z,36.60
2018-09-03T01:20:52.880Z,30.33
2018-09-03T01:23:21.887Z,35.10
2018-09-03T01:25:50.559Z,37.23
2018-09-03T01:28:19.294Z,32.80
2018-09-03T01:30:48.027Z,29.50
2018-09-03T01:33:16.802Z,36.20
2018-09-03T01:35:45.469Z,39.63
2018-09-03T01:38:14.231Z,35.40
2018-09-03T01:40:43.065Z,34.97
2018-09-03T01:43:11.752Z,35.07
2018-09-03T01:45:40.559Z,36.57
2018-09-03T01:48:09.340Z,39.87
2018-09-03T01:50:38.032Z,33.70
2018-09-03T01:53:06.900Z,33.60
2018-09-03T01:55:35.525Z,36.00
2018-09-03T01:58:04.145Z,33.23
2018-09-03T02:00:32.784Z,37.60
2018-09-03T02:03:01.409Z,36.30
2018-09-03T02:05:30.354Z,37.67
2018-09-03T02:07:59.014Z,37.53
2018-09-03T02:10:27.731Z,35.80
2018-09-03T02:12:56.387Z,37.00
2018-09-03T02:15:25.180Z,41.60
2018-09-03T02:17:53.945Z,36.90
2018-09-03T02:20:22.692Z,37.43
2018-09-03T02:22:51.404Z,39.00
2018-09-03T02:25:20.148Z,40.00
2018-09-03T02:27:48.826Z,43.93
2018-09-03T02:30:17.528Z,45.27
2018-09-03T02:32:46.303Z,53.43
2018-09-03T02:35:15.078Z,46.77
2018-09-03T02:37:43.827Z,49.00
2018-09-03T02:40:12.617Z,54.20
2018-09-03T02:42:41.313Z,54.90
2018-09-03T02:45:10.663Z,54.73
2018-09-03T02:47:39.554Z,58.27
2018-09-03T02:50:08.500Z,59.30
2018-09-03T02:52:37.380Z,51.43
2018-09-03T02:55:06.506Z,54.40
2018-09-03T02:57:35.255Z,56.67
2018-09-03T03:00:04.771Z,54.93
2018-09-03T03:02:33.663Z,55.13
2018-09-03T03:05:02.549Z,55.67
2018-09-03T03:07:31.299Z,53.90
2018-09-03T03:10:00.080Z,64.23
2018-09-03T03:12:28.798Z,58.10
2018-09-03T03:14:58.241Z,59.30
2018-09-03T03:17:27.020Z,57.83
2018-09-03T03:19:55.737Z,58.37
2018-09-03T03:22:24.525Z,63.03
2018-09-03T03:24:53.217Z,62.70
2018-09-03T03:27:21.970Z,63.77
2018-09-03T03:29:50.783Z,59.60
2018-09-03T03:32:19.593Z,63.90
2018-09-03T03:34:48.306Z,63.17
2018-09-03T03:37:17.160Z,59.10
2018-09-03T03:39:45.881Z,55.20
2018-09-03T03:42:14.792Z,76.47
2018-09-03T03:44:43.619Z,65.37
2018-09-03T03:47:12.623Z,62.30
2018-09-03T03:49:41.377Z,91.57
2018-09-03T03:52:10.283Z,55.60
2018-09-03T03:54:38.973Z,58.53
2018-09-03T03:57:07.997Z,66.70
2018-09-03T03:59:36.808Z,70.07
2018-09-03T04:02:05.732Z,56.67
2018-09-03T04:04:34.831Z,56.97
2018-09-03T04:07:03.713Z,51.13
2018-09-03T04:09:32.617Z,45.30
2018-09-03T04:12:01.387Z,52.23
2018-09-03T04:14:30.204Z,45.27
2018-09-03T04:16:59.075Z,51.80
2018-09-03T04:19:27.909Z,49.87
2018-09-03T04:21:56.731Z,59.27
2018-09-03T04:24:25.459Z,56.60
2018-09-03T04:26:54.264Z,59.47
2018-09-03T04:29:23.560Z,59.27
2018-09-03T04:31:52.448Z,56.27
2018-09-03T04:34:21.236Z,57.50
2018-09-03T04:36:50.083Z,60.70
2018-09-03T04:39:19.044Z,62.93
2018-09-03T04:41:47.967Z,58.77
2018-09-03T04:44:16.777Z,54.60
2018-09-03T04:46:45.625Z,69.73
2018-09-03T04:49:14.408Z,60.00
2018-09-03T04:51:43.619Z,59.20
2018-09-03T04:54:12.517Z,54.80
2018-09-03T04:56:41.348Z,60.60
2018-09-03T04:59:10.093Z,55.30
2018-09-03T05:01:38.868Z,70.40
2018-09-03T05:04:07.662Z,49.20
2018-09-03T05:06:36.640Z,52.37
2018-09-03T05:09:06.308Z,51.70
2018-09-03T05:11:35.353Z,53.13
2018-09-03T05:14:04.513Z,45.00
2018-09-03T05:16:33.487Z,49.97
2018-09-03T05:19:03.346Z,45.33
2018-09-03T05:21:32.302Z,51.53
2018-09-03T05:24:01.195Z,59.87
2018-09-03T05:26:30.081Z,60.40
2018-09-03T05:28:59.278Z,50.47
2018-09-03T05:31:28.216Z,49.17
2018-09-03T05:33:57.117Z,56.03
2018-09-03T05:36:25.977Z,41.53
2018-09-03T05:38:54.985Z,42.83
2018-09-03T05:41:23.878Z,46.07
2018-09-03T05:43:52.736Z,59.17
2018-09-03T05:46:21.730Z,50.23
2018-09-03T05:48:50.523Z,45.30
2018-09-03T05:51:19.433Z,37.73
2018-09-03T05:53:48.320Z,38.50
2018-09-03T05:56:17.174Z,44.43
2018-09-03T05:58:45.880Z,37.57
2018-09-03T06:01:14.948Z,50.90
2018-09-03T06:03:44.186Z,38.70
2018-09-03T06:06:13.307Z,40.30
2018-09-03T06:08:42.109Z,42.23
2018-09-03T06:11:10.902Z,38.40
2018-09-03T06:13:39.821Z,38.47
2018-09-03T06:16:08.765Z,38.33
2018-09-03T06:18:37.448Z,39.87
2018-09-03T06:21:06.286Z,33.67
2018-09-03T06:23:35.407Z,33.80
2018-09-03T06:26:04.498Z,37.97
2018-09-03T06:28:33.134Z,42.27
2018-09-03T06:31:02.386Z,36.23
2018-09-03T06:33:31.363Z,38.07
2018-09-03T06:36:00.129Z,40.33
2018-09-03T06:38:29.241Z,34.67
2018-09-03T06:40:58.025Z,34.90
2018-09-03T06:43:26.873Z,52.07
2018-09-03T06:45:55.744Z,35.30
2018-09-03T06:48:24.559Z,35.17
2018-09-03T06:50:53.420Z,38.83
2018-09-03T06:53:22.346Z,36.20
2018-09-03T06:55:51.180Z,36.40
2018-09-03T06:58:20.017Z,34.13
2018-09-03T07:00:48.748Z,40.47
2018-09-03T07:03:17.774Z,37.40
2018-09-03T07:05:46.624Z,32.73
2018-09-03T07:08:15.433Z,32.30
2018-09-03T07:10:44.614Z,33.93
2018-09-03T07:13:13.573Z,33.37
2018-09-03T07:15:42.794Z,30.33
2018-09-03T07:18:11.705Z,32.50
2018-09-03T07:20:40.514Z,28.37
2018-09-03T07:23:09.757Z,30.33
2018-09-03T07:25:38.642Z,29.73
2018-09-03T07:28:07.685Z,28.17
2018-09-03T07:30:36.685Z,29.40
2018-09-03T07:33:05.664Z,28.90
2018-09-03T07:35:34.564Z,29.50
2018-09-03T07:38:10.225Z,26.70
2018-09-03T07:40:39.638Z,30.73
2018-09-03T07:43:08.804Z,30.60
2018-09-03T07:45:38.419Z,28.47
2018-09-03T07:48:07.251Z,30.77
2018-09-03T07:50:36.088Z,24.93
2018-09-03T07:53:05.096Z,27.93
2018-09-03T07:55:33.922Z,25.47
2018-09-03T07:58:02.868Z,28.27
2018-09-03T08:00:31.654Z,25.10
2018-09-03T08:03:00.426Z,25.80
2018-09-03T08:05:29.242Z,26.40
2018-09-03T08:07:58.237Z,22.90
2018-09-03T08:10:27.113Z,22.00
2018-09-03T08:12:55.959Z,22.53
2018-09-03T08:15:24.852Z,23.13
2018-09-03T08:17:53.847Z,26.50
2018-09-03T08:20:22.681Z,25.87
2018-09-03T08:22:51.540Z,24.10
2018-09-03T08:25:20.593Z,23.10
2018-09-03T08:27:49.881Z,23.00
2018-09-03T08:30:18.984Z,23.50
2018-09-03T08:32:47.901Z,23.50
2018-09-03T08:35:16.940Z,22.20
2018-09-03T08:37:45.882Z,24.80
2018-09-03T08:40:14.840Z,21.70
2018-09-03T08:42:43.590Z,26.20
2018-09-03T08:45:12.865Z,23.07
2018-09-03T08:47:41.674Z,21.67
2018-09-03T08:50:10.535Z,21.57
2018-09-03T08:52:39.312Z,21.20
2018-09-03T08:55:08.180Z,23.13
2018-09-03T08:57:37.042Z,20.00
2018-09-03T09:00:06.273Z,22.10
2018-09-03T09:02:35.137Z,25.03
2018-09-03T09:05:03.988Z,19.33
2018-09-03T09:07:32.937Z,22.10
2018-09-03T09:10:01.845Z,21.03
2018-09-03T09:12:30.883Z,19.40
2018-09-03T09:15:00.733Z,17.10
2018-09-03T09:17:29.649Z,18.97
2018-09-03T09:19:58.465Z,19.67
2018-09-03T09:22:27.396Z,19.00
2018-09-03T09:24:56.496Z,20.50
2018-09-03T09:27:25.337Z,18.70
2018-09-03T09:29:54.116Z,20.73
2018-09-03T09:32:22.977Z,16.83
2018-09-03T09:34:51.857Z,16.57
2018-09-03T09:37:20.656Z,14.73
2018-09-03T09:39:49.384Z,21.67
2018-09-03T09:42:18.239Z,20.70
2018-09-03T09:44:47.091Z,17.03
2018-09-03T09:47:16.004Z,16.33
2018-09-03T09:49:44.850Z,16.33
2018-09-03T09:52:13.901Z,15.53
2018-09-03T09:54:42.792Z,16.13
2018-09-03T09:57:11.662Z,17.27
2018-09-03T09:59:40.360Z,16.00
2018-09-03T10:02:09.173Z,14.10
2018-09-03T10:04:38.082Z,13.33
2018-09-03T10:07:07.440Z,15.93
2018-09-03T10:09:36.143Z,13.83
2018-09-03T10:12:05.033Z,13.07
2018-09-03T10:14:33.943Z,15.00
2018-09-03T10:17:02.908Z,12.67
2018-09-03T10:19:31.937Z,14.40
2018-09-03T10:22:00.788Z,14.77
2018-09-03T10:24:29.743Z,10.93
2018-09-03T10:26:58.547Z,10.77
2018-09-03T10:46:50.439Z,9.83
2018-09-03T10:49:19.241Z,6.57
2018-09-03T10:51:48.032Z,7.03
2018-09-03T10:54:16.885Z,12.60
2018-09-03T10:56:45.773Z,8.57
2018-09-03T10:59:14.653Z,7.33
2018-09-03T11:01:43.344Z,9.07
2018-09-03T11:04:12.125Z,8.87
2018-09-03T11:06:40.959Z,7.27
2018-09-03T11:09:10.935Z,7.40
2018-09-03T11:11:40.049Z,6.90
2018-09-03T11:14:09.319Z,8.53
2018-09-03T11:16:38.466Z,8.83
2018-09-03T11:19:07.724Z,10.50
2018-09-03T11:21:36.632Z,7.93
2018-09-03T11:24:05.265Z,8.37
2018-09-03T11:26:34.099Z,4.67
2018-09-03T11:29:02.966Z,6.23
2018-09-03T11:31:31.796Z,6.33
2018-09-03T11:34:00.612Z,6.30
2018-09-03T11:36:29.461Z,5.33
2018-09-03T11:38:58.225Z,8.13
2018-09-03T11:41:27.095Z,5.53
2018-09-03T11:43:55.828Z,6.37
2018-09-03T11:46:24.804Z,6.97
2018-09-03T11:48:53.768Z,5.63
2018-09-03T11:51:22.505Z,6.40
2018-09-03T11:53:51.364Z,10.07
2018-09-03T11:56:20.109Z,8.00
2018-09-03T11:58:48.825Z,8.87
2018-09-03T12:01:17.684Z,6.90
2018-09-03T12:03:46.428Z,6.53
2018-09-03T12:06:15.312Z,7.03
2018-09-03T12:08:44.145Z,7.17
2018-09-03T12:11:12.936Z,7.90
2018-09-03T12:13:41.686Z,7.23
2018-09-03T12:16:12.911Z,10.43
2018-09-03T12:18:42.799Z,7.13
2018-09-03T12:21:12.751Z,8.80
2018-09-03T12:23:42.608Z,9.37
2018-09-03T12:26:11.535Z,5.50
2018-09-03T12:28:40.205Z,7.07
2018-09-03T12:31:09.510Z,5.60
2018-09-03T12:33:38.185Z,6.00
2018-09-03T12:36:07.181Z,6.77
2018-09-03T12:38:36.120Z,7.83
2018-09-03T12:41:05.744Z,6.63
2018-09-03T12:43:34.843Z,6.93
2018-09-03T12:46:05.032Z,10.53
2018-09-03T12:48:33.941Z,11.73
2018-09-03T12:51:03.797Z,8.80
2018-09-03T12:53:33.035Z,6.90
2018-09-03T12:56:02.040Z,8.77
2018-09-03T12:58:30.935Z,10.50
2018-09-03T13:00:59.845Z,8.03
2018-09-03T13:03:28.897Z,6.70
2018-09-03T13:06:01.532Z,9.13
2018-09-03T13:08:36.106Z,9.83
2018-09-03T13:11:06.499Z,13.73
2018-09-03T13:13:35.348Z,8.87
2018-09-03T13:16:04.125Z,8.33
2018-09-03T13:18:32.906Z,7.70
2018-09-03T13:21:01.705Z,9.13
2018-09-03T13:23:30.503Z,9.90
2018-09-03T13:25:59.622Z,13.30
2018-09-03T13:28:28.484Z,9.33
2018-09-03T13:30:57.519Z,6.40
2018-09-03T13:33:26.503Z,6.97
2018-09-03T13:35:55.285Z,9.47
2018-09-03T13:38:24.187Z,8.60
2018-09-03T13:40:53.029Z,11.17
2018-09-03T13:43:22.025Z,5.73
2018-09-03T13:45:51.101Z,9.13
2018-09-03T13:48:20.240Z,7.67
2018-09-03T13:50:49.152Z,9.73
2018-09-03T13:53:18.146Z,12.83
2018-09-03T13:55:47.069Z,6.43
2018-09-03T13:58:15.997Z,7.97
2018-09-03T14:00:44.780Z,8.23
2018-09-03T14:03:13.580Z,9.93
2018-09-03T14:05:42.454Z,7.30
2018-09-03T14:08:11.300Z,6.90
2018-09-03T14:10:40.107Z,6.30
2018-09-03T14:13:09.183Z,7.50
2018-09-03T14:15:38.115Z,6.53
2018-09-03T14:18:07.228Z,18.03
2018-09-03T14:20:36.113Z,9.97
2018-09-03T14:23:05.157Z,8.63
2018-09-03T14:25:34.204Z,9.10
2018-09-03T14:28:03.199Z,9.90
2018-09-03T14:30:32.275Z,6.80
2018-09-03T14:33:01.241Z,5.70
2018-09-03T14:35:29.934Z,8.53
2018-09-03T14:37:58.750Z,6.03
2018-09-03T14:40:27.665Z,8.30
2018-09-03T14:42:56.610Z,7.30
2018-09-03T14:45:25.662Z,6.90
2018-09-03T14:47:54.378Z,6.37
2018-09-03T14:50:23.193Z,7.63
2018-09-03T14:52:52.144Z,8.10
2018-09-03T14:55:21.144Z,7.20
2018-09-03T14:57:49.920Z,5.83
2018-09-03T15:00:18.749Z,5.70
2018-09-03T15:02:47.513Z,5.20
2018-09-03T15:05:16.339Z,7.97
2018-09-03T15:07:45.192Z,5.53
2018-09-03T15:10:14.051Z,7.00
2018-09-03T15:12:42.800Z,5.63
2018-09-03T15:15:11.586Z,5.63
2018-09-03T15:17:40.725Z,7.53
2018-09-03T15:20:09.583Z,6.70
2018-09-03T15:22:38.679Z,8.77
2018-09-03T15:25:07.339Z,7.63
2018-09-03T15:27:36.105Z,6.93
2018-09-03T15:30:04.986Z,7.50
2018-09-03T15:32:33.767Z,13.73
2018-09-03T15:35:02.564Z,6.23
2018-09-03T15:37:31.314Z,12.20
2018-09-03T15:40:02.121Z,8.40
2018-09-03T15:42:30.908Z,9.57
2018-09-03T15:44:59.796Z,7.13
2018-09-03T15:47:28.609Z,6.90
2018-09-03T15:49:57.508Z,6.97
2018-09-03T15:52:26.377Z,11.87
2018-09-03T15:54:55.270Z,8.53
2018-09-03T15:57:24.050Z,7.40
2018-09-03T15:59:52.748Z,7.80
2018-09-03T16:02:21.545Z,8.83
2018-09-03T16:04:50.320Z,8.13
2018-09-03T16:07:19.119Z,11.50
2018-09-03T16:09:48.122Z,8.70
2018-09-03T16:12:16.979Z,8.17
2018-09-03T16:14:45.825Z,11.00
2018-09-03T16:17:14.679Z,9.67
2018-09-03T16:19:43.671Z,10.30
2018-09-03T16:22:12.469Z,8.87
2018-09-03T16:24:41.381Z,9.50
2018-09-03T16:27:10.373Z,8.80
2018-09-03T16:29:39.939Z,8.30
2018-09-03T16:32:09.459Z,8.30
2018-09-03T16:34:38.267Z,16.00
2018-09-03T16:37:07.383Z,10.20
2018-09-03T16:39:36.776Z,12.30
2018-09-03T16:42:05.589Z,9.30
2018-09-03T16:44:34.378Z,12.77
2018-09-03T16:47:03.259Z,11.63
2018-09-03T16:49:31.969Z,13.47
2018-09-03T16:52:00.789Z,9.70
2018-09-03T16:54:29.548Z,9.67
2018-09-03T16:56:58.370Z,13.30
2018-09-03T16:59:28.115Z,21.20
2018-09-03T17:01:56.904Z,14.00
2018-09-03T17:04:25.742Z,13.77
2018-09-03T17:06:54.500Z,12.30
2018-09-03T17:09:23.384Z,13.10
2018-09-03T17:11:52.119Z,10.30
2018-09-03T17:14:20.914Z,9.97
2018-09-03T17:16:49.763Z,11.40
2018-09-03T17:19:18.524Z,11.70
2018-09-03T17:21:47.784Z,12.37
2018-09-03T17:24:16.806Z,10.80
2018-09-03T17:26:46.380Z,12.70
2018-09-03T17:29:15.209Z,13.43
2018-09-03T17:31:44.174Z,21.00
2018-09-03T17:34:13.029Z,12.37
2018-09-03T17:36:41.793Z,21.30
2018-09-03T17:39:11.272Z,12.03
2018-09-03T17:41:40.073Z,9.37
2018-09-03T17:44:08.905Z,10.03
2018-09-03T17:46:37.800Z,10.27
2018-09-03T17:49:06.605Z,12.07
2018-09-03T17:51:35.358Z,11.30
2018-09-03T17:54:04.288Z,11.27
2018-09-03T17:56:34.402Z,12.40
2018-09-03T17:59:04.432Z,17.50
2018-09-03T18:01:33.211Z,12.43
2018-09-03T18:04:02.244Z,11.97
2018-09-03T18:06:31.050Z,12.37
2018-09-03T18:08:59.786Z,13.90
2018-09-03T18:11:28.705Z,11.87
2018-09-03T18:13:57.554Z,11.90
2018-09-03T18:16:26.436Z,10.87
2018-09-03T18:18:55.414Z,16.77
2018-09-03T18:21:24.221Z,10.40
2018-09-03T18:23:53.027Z,13.03
2018-09-03T18:26:21.800Z,15.30
2018-09-03T18:28:50.521Z,14.70
2018-09-03T18:31:19.372Z,18.37
2018-09-03T18:33:48.161Z,19.20
2018-09-03T18:36:17.004Z,21.00
2018-09-03T18:38:45.791Z,18.83
2018-09-03T18:41:14.647Z,28.00
2018-09-03T18:43:43.420Z,24.07
2018-09-03T18:46:12.260Z,21.40
2018-09-03T18:48:41.215Z,21.67
2018-09-03T18:51:10.176Z,28.10
2018-09-03T18:53:39.000Z,23.87
2018-09-03T18:56:07.770Z,24.67
2018-09-03T18:58:36.497Z,27.13
2018-09-03T19:01:05.564Z,21.73
2018-09-03T19:03:34.455Z,24.10
2018-09-03T19:06:03.293Z,24.53
2018-09-03T19:08:32.099Z,26.60
2018-09-03T19:11:01.268Z,26.20
2018-09-03T19:13:30.167Z,30.53
2018-09-03T19:15:58.952Z,30.50
2018-09-03T19:18:27.711Z,30.00
2018-09-03T19:20:56.472Z,27.07
2018-09-03T19:23:25.245Z,27.27
2018-09-03T19:25:53.995Z,25.93
2018-09-03T19:28:22.826Z,28.40
2018-09-03T19:30:51.547Z,28.50
2018-09-03T19:33:20.413Z,35.93
2018-09-03T19:35:49.635Z,27.83
2018-09-03T19:38:19.008Z,34.40
2018-09-03T19:40:47.697Z,34.63
2018-09-03T19:43:16.489Z,31.00
2018-09-03T19:45:45.211Z,28.70
2018-09-03T19:48:14.054Z,32.40
2018-09-03T19:50:42.748Z,33.37
2018-09-03T19:53:11.454Z,31.17
2018-09-03T19:55:40.314Z,30.10
2018-09-03T19:58:09.120Z,29.63
2018-09-03T20:00:38.048Z,30.33
2018-09-03T20:03:07.082Z,29.97
2018-09-03T20:05:35.905Z,31.33
2018-09-03T20:08:04.783Z,30.67
2018-09-03T20:10:33.652Z,31.90
2018-09-03T20:13:02.446Z,33.07
2018-09-03T20:15:31.165Z,28.40
2018-09-03T20:17:59.978Z,33.33
2018-09-03T20:20:29.849Z,27.87
2018-09-03T20:22:58.658Z,32.67
2018-09-03T20:25:27.337Z,29.23
2018-09-03T20:27:56.091Z,32.67
2018-09-03T20:30:24.893Z,33.40
2018-09-03T20:32:53.550Z,31.37
2018-09-03T20:35:22.375Z,31.83
2018-09-03T20:37:51.094Z,31.23
2018-09-03T20:40:19.849Z,33.23
2018-09-03T20:42:48.663Z,30.23
2018-09-03T20:45:17.468Z,33.90
2018-09-03T20:47:46.473Z,33.20
2018-09-03T20:50:15.202Z,37.00
2018-09-03T20:52:43.885Z,32.10
2018-09-03T20:55:12.976Z,32.30
2018-09-03T20:57:41.664Z,38.73
2018-09-03T21:00:10.854Z,34.70
2018-09-03T21:02:40.187Z,37.57
2018-09-03T21:05:09.042Z,35.20
2018-09-03T21:07:37.745Z,34.27
2018-09-03T21:10:07.037Z,35.27
2018-09-03T21:12:36.221Z,33.07
2018-09-03T21:15:05.133Z,35.03
2018-09-03T21:17:33.881Z,40.83
2018-09-03T21:20:02.644Z,38.50
2018-09-03T21:22:31.709Z,36.60
2018-09-03T21:25:00.502Z,39.60
2018-09-03T21:27:29.221Z,43.77
2018-09-03T21:29:58.052Z,35.43
2018-09-03T21:32:26.913Z,38.27
2018-09-03T21:34:55.790Z,40.73
2018-09-03T21:37:24.836Z,40.17
2018-09-03T21:39:53.509Z,43.47
2018-09-03T21:42:22.204Z,41.40
2018-09-03T21:44:50.978Z,40.30
2018-09-03T21:47:19.785Z,35.77
2018-09-03T21:49:48.620Z,39.27
2018-09-03T21:52:17.595Z,40.40
2018-09-03T21:54:46.749Z,40.00
2018-09-03T21:57:16.440Z,46.07
2018-09-03T21:59:45.261Z,38.47
2018-09-03T22:02:14.065Z,37.77
2018-09-03T22:04:42.956Z,38.77
2018-09-03T22:07:12.254Z,40.03
2018-09-03T22:09:45.117Z,43.20
2018-09-03T22:12:14.718Z,39.10
2018-09-03T22:14:43.423Z,40.40
2018-09-03T22:17:12.158Z,39.27
2018-09-03T22:19:40.980Z,45.17
2018-09-03T22:22:09.776Z,42.03
2018-09-03T22:24:38.625Z,40.70
2018-09-03T22:27:07.415Z,48.40
2018-09-03T22:29:36.235Z,43.23
2018-09-03T22:32:05.052Z,44.40
2018-09-03T22:34:33.672Z,42.60
2018-09-03T22:37:02.461Z,41.03
2018-09-03T22:39:31.300Z,38.03
2018-09-03T22:41:59.988Z,40.57
2018-09-03T22:44:28.713Z,38.80
2018-09-03T22:46:57.507Z,43.87
2018-09-03T22:49:26.370Z,38.60
2018-09-03T22:51:55.150Z,37.50
2018-09-03T22:54:23.827Z,39.17
2018-09-03T22:56:52.612Z,47.73
2018-09-03T22:59:21.311Z,39.97
2018-09-03T23:01:50.057Z,40.13
2018-09-03T23:04:18.746Z,42.40
2018-09-03T23:06:47.436Z,45.03
2018-09-03T23:09:16.169Z,43.30
2018-09-03T23:11:44.933Z,47.23
2018-09-03T23:14:13.719Z,45.00
2018-09-03T23:16:42.406Z,37.00
2018-09-03T23:19:11.204Z,43.40
2018-09-03T23:21:39.856Z,35.40
2018-09-03T23:24:08.681Z,41.77
2018-09-03T23:26:37.397Z,37.00
2018-09-03T23:29:06.152Z,40.70
2018-09-03T23:31:34.844Z,41.03
2018-09-03T23:34:03.633Z,37.47
2018-09-03T23:36:32.453Z,39.40
2018-09-03T23:39:01.205Z,39.83
2018-09-03T23:41:29.856Z,39.90
2018-09-03T23:43:58.567Z,35.60
2018-09-03T23:46:27.228Z,38.07
2018-09-03T23:48:55.918Z,38.70
2018-09-03T23:51:24.624Z,33.30
2018-09-03T23:53:53.316Z,36.83
2018-09-03T23:56:21.995Z,39.33
2018-09-03T23:58:50.672Z,34.40
